Huvudsida
METAR-TAF:

METAR-TAF

Flygplatser :

White Mountain, Alaska, USA

latitud: 64-41-21N, longitud: 163-24-46W, höjd: 81 m

Aktuellt väderrapport

Denna rapport gjordes för 21 minuter sedan, klockan 18:06 UTC
Vind 4 kt från syd/sydväst
Temperatur 4°C
Fuktighet 93%
Tryck 1026 hPa
Sikt: 3.2 km
Brutna moln på en höjd av 700 ft
Mulet på en höjd av 1400 ft
fuktdis

METAR: PAWM 141806Z AUTO 20004KT 2SM BR BKN007 OVC014 04/03 A3031 RMK AO2 VIS 1 1/2V3 CIG 004V009 PNO $

Tid: 10:27 (18:27 UTC)


TAF: saknas

Aktuella väderrapporter och prognoser från 4000 flygplatser (METAR- och TAF-rapporter).

De tillgängliga stationerna syns som gula och röda prickar på kartan.

För musen över prickarna för att se namnen på stationerna.

Klicka sedan för att få väderrapporter och prognoser.

För att ändra kartan: Klicka på de gröna knapparna med ett svart kors på för att zooma in; den gröna knappen med ett streck på för att zooma ut; eller på de gröna pilarna för angränsande kartor.


METAR-TAF: